createdAt,value
2017-06-20T00:02:02.823Z,21.50
2017-06-20T00:04:31.309Z,28.80
2017-06-20T00:06:59.688Z,20.63
2017-06-20T00:09:28.966Z,30.77
2017-06-20T00:11:57.368Z,26.03
2017-06-20T00:14:25.902Z,34.73
2017-06-20T00:16:53.588Z,35.43
2017-06-20T00:19:21.222Z,22.73
2017-06-20T00:21:49.477Z,26.00
2017-06-20T00:24:17.974Z,19.07
2017-06-20T00:26:45.578Z,31.20
2017-06-20T00:29:13.255Z,23.10
2017-06-20T00:31:41.456Z,27.27
2017-06-20T00:34:09.271Z,23.87
2017-06-20T00:36:37.014Z,29.93
2017-06-20T00:39:04.881Z,33.90
2017-06-20T00:41:32.809Z,34.77
2017-06-20T00:44:01.259Z,31.13
2017-06-20T00:46:29.274Z,31.60
2017-06-20T00:48:57.486Z,31.13
2017-06-20T00:51:25.834Z,27.37
2017-06-20T00:53:53.493Z,29.60
2017-06-20T00:56:21.853Z,28.83
2017-06-20T00:58:50.228Z,32.40
2017-06-20T01:01:17.894Z,32.33
2017-06-20T01:03:46.436Z,31.40
2017-06-20T01:06:15.311Z,29.93
2017-06-20T01:08:46.403Z,31.50
2017-06-20T01:11:14.108Z,33.20
2017-06-20T01:13:41.745Z,37.13
2017-06-20T01:16:10.033Z,46.60
2017-06-20T01:18:38.704Z,36.60
2017-06-20T01:21:07.390Z,38.13
2017-06-20T01:23:36.281Z,34.27
2017-06-20T01:26:04.381Z,39.20
2017-06-20T01:28:32.582Z,40.13
2017-06-20T01:31:01.160Z,51.77
2017-06-20T01:33:29.617Z,40.47
2017-06-20T01:35:59.350Z,36.73
2017-06-20T01:38:27.453Z,38.87
2017-06-20T01:40:55.240Z,40.20
2017-06-20T01:43:23.052Z,41.50
2017-06-20T01:45:50.613Z,44.50
2017-06-20T01:48:18.172Z,38.63
2017-06-20T01:50:46.256Z,40.60
2017-06-20T01:53:13.877Z,40.07
2017-06-20T01:55:41.624Z,43.10
2017-06-20T01:58:10.023Z,38.60
2017-06-20T02:00:37.822Z,50.70
2017-06-20T02:03:05.538Z,35.50
2017-06-20T02:05:34.216Z,47.97
2017-06-20T02:08:02.402Z,37.73
2017-06-20T02:10:31.607Z,45.17
2017-06-20T02:13:01.191Z,41.83
2017-06-20T02:15:29.733Z,39.93
2017-06-20T02:17:59.550Z,39.27
2017-06-20T02:20:28.673Z,37.73
2017-06-20T02:22:56.730Z,36.17
2017-06-20T02:25:24.415Z,44.03
2017-06-20T02:27:52.233Z,36.53
2017-06-20T02:30:19.856Z,46.93
2017-06-20T02:32:47.469Z,40.60
2017-06-20T02:35:15.305Z,34.53
2017-06-20T02:37:42.931Z,45.70
2017-06-20T02:40:10.740Z,49.30
2017-06-20T02:42:38.586Z,48.80
2017-06-20T02:45:06.336Z,52.03
2017-06-20T02:47:34.169Z,52.43
2017-06-20T02:50:03.525Z,41.53
2017-06-20T02:52:31.786Z,40.67
2017-06-20T02:54:59.673Z,46.63
2017-06-20T02:57:28.043Z,51.60
2017-06-20T02:59:56.902Z,65.57
2017-06-20T03:02:24.804Z,58.83
2017-06-20T03:04:52.948Z,52.13
2017-06-20T03:07:21.301Z,54.00
2017-06-20T03:09:48.861Z,63.57
2017-06-20T03:12:17.829Z,55.30
2017-06-20T03:14:45.384Z,43.90
2017-06-20T03:17:13.717Z,61.00
2017-06-20T03:19:42.653Z,55.60
2017-06-20T03:22:11.628Z,56.17
2017-06-20T03:24:39.587Z,57.37
2017-06-20T03:27:07.517Z,67.67
2017-06-20T03:29:35.344Z,54.53
2017-06-20T03:32:03.984Z,49.90
2017-06-20T03:34:32.149Z,57.90
2017-06-20T03:37:00.078Z,57.83
2017-06-20T03:39:28.159Z,57.17
2017-06-20T03:41:56.801Z,56.30
2017-06-20T03:44:25.267Z,56.13
2017-06-20T03:46:52.836Z,58.47
2017-06-20T03:49:20.595Z,65.87
2017-06-20T03:51:48.156Z,60.63
2017-06-20T03:54:16.472Z,55.83
2017-06-20T03:56:44.366Z,55.00
2017-06-20T03:59:12.118Z,67.80
2017-06-20T04:01:40.773Z,65.47
2017-06-20T04:04:08.932Z,50.03
2017-06-20T04:06:37.714Z,58.90
2017-06-20T04:09:05.566Z,55.13
2017-06-20T04:11:33.753Z,56.30
2017-06-20T04:14:01.737Z,52.53
2017-06-20T04:16:29.669Z,54.50
2017-06-20T04:18:58.968Z,57.93
2017-06-20T04:21:36.391Z,64.80
2017-06-20T04:24:04.209Z,58.93
2017-06-20T04:26:32.713Z,69.70
2017-06-20T04:29:00.903Z,60.03
2017-06-20T04:31:29.544Z,54.27
2017-06-20T04:33:57.575Z,56.10
2017-06-20T04:36:25.299Z,55.33
2017-06-20T04:38:54.244Z,48.50
2017-06-20T04:41:21.856Z,56.33
2017-06-20T04:43:49.436Z,54.77
2017-06-20T04:46:18.800Z,64.10
2017-06-20T04:48:47.122Z,61.77
2017-06-20T04:51:14.688Z,53.70
2017-06-20T04:53:42.685Z,48.30
2017-06-20T04:56:10.484Z,56.50
2017-06-20T04:58:38.299Z,66.00
2017-06-20T05:01:06.575Z,58.73
2017-06-20T05:03:34.227Z,56.07
2017-06-20T05:06:02.098Z,51.67
2017-06-20T05:08:30.388Z,48.57
2017-06-20T05:10:58.244Z,60.83
2017-06-20T05:13:27.380Z,49.10
2017-06-20T05:15:55.387Z,65.03
2017-06-20T05:18:23.800Z,56.40
2017-06-20T05:20:51.356Z,38.20
2017-06-20T05:23:19.657Z,46.50
2017-06-20T05:25:47.754Z,41.13
2017-06-20T05:28:15.413Z,47.00
2017-06-20T18:39:54.316Z,8.87
2017-06-20T18:42:21.960Z,5.17
2017-06-20T18:44:49.638Z,7.57
2017-06-20T18:47:17.361Z,8.30
2017-06-20T18:49:45.100Z,10.37
2017-06-20T18:52:12.895Z,17.93
2017-06-20T18:54:42.056Z,8.23
2017-06-20T18:57:09.708Z,12.37
2017-06-20T18:59:37.274Z,8.33
2017-06-20T19:02:04.936Z,10.00
2017-06-20T19:04:32.599Z,9.63
2017-06-20T19:07:00.237Z,8.67
2017-06-20T19:09:28.955Z,8.63
2017-06-20T19:11:56.766Z,17.37
2017-06-20T19:14:24.429Z,8.80
2017-06-20T19:16:54.222Z,7.50
2017-06-20T19:19:21.845Z,8.40
2017-06-20T19:21:49.496Z,4.80
2017-06-20T19:24:18.909Z,9.20
2017-06-20T19:26:46.597Z,6.90
2017-06-20T19:29:14.270Z,14.40
2017-06-20T19:31:41.919Z,15.73
2017-06-20T19:34:09.682Z,16.97
2017-06-20T19:36:38.464Z,4.43
2017-06-20T19:39:06.765Z,10.90
2017-06-20T19:41:35.165Z,7.53
2017-06-20T19:44:03.610Z,8.47
2017-06-20T19:46:31.685Z,20.47
2017-06-20T19:49:00.311Z,17.77
2017-06-20T19:51:27.974Z,8.83
2017-06-20T19:53:55.946Z,12.23
2017-06-20T19:56:23.521Z,7.17
2017-06-20T19:58:51.166Z,10.30
2017-06-20T20:01:20.491Z,9.93
2017-06-20T20:03:48.063Z,8.23
2017-06-20T20:06:15.632Z,11.03
2017-06-20T20:08:44.016Z,13.77
2017-06-20T20:11:11.648Z,13.33
2017-06-20T20:13:39.436Z,6.20
2017-06-20T20:16:07.292Z,4.27
2017-06-20T20:18:35.962Z,8.23
2017-06-20T20:21:03.575Z,7.83
2017-06-20T20:23:34.124Z,6.23
2017-06-20T20:26:01.916Z,8.23
2017-06-20T20:28:29.662Z,9.70
2017-06-20T20:30:58.717Z,9.70
2017-06-20T20:33:26.494Z,5.70
2017-06-20T20:35:54.146Z,8.87
2017-06-20T20:38:21.953Z,13.23
2017-06-20T20:40:49.545Z,14.07
2017-06-20T20:43:18.095Z,28.50
2017-06-20T20:45:47.232Z,7.17
2017-06-20T20:48:14.949Z,7.83
2017-06-20T20:50:43.370Z,17.37
2017-06-20T20:53:11.025Z,9.47
2017-06-20T20:55:38.654Z,9.90
2017-06-20T20:58:06.525Z,15.63
2017-06-20T21:00:34.457Z,5.90
2017-06-20T21:03:02.053Z,8.93
2017-06-20T21:05:30.528Z,12.83
2017-06-20T21:07:58.648Z,9.50
2017-06-20T21:10:28.104Z,6.13
2017-06-20T21:12:55.695Z,6.27
2017-06-20T21:15:24.593Z,14.50
2017-06-20T21:17:53.109Z,2.73
2017-06-20T21:20:20.792Z,7.90
2017-06-20T21:22:49.151Z,8.97
2017-06-20T21:25:16.713Z,7.60
2017-06-20T21:27:45.193Z,8.83
2017-06-20T21:30:12.815Z,12.40
2017-06-20T21:32:41.126Z,4.30
2017-06-20T21:35:08.715Z,13.20
2017-06-20T21:37:37.272Z,6.03
2017-06-20T21:40:04.985Z,13.23
2017-06-20T21:42:32.663Z,8.00
2017-06-20T21:45:01.846Z,20.23
2017-06-20T21:47:30.218Z,7.83
2017-06-20T21:49:57.781Z,11.43
2017-06-20T21:52:27.077Z,9.77
2017-06-20T21:54:54.696Z,11.53
2017-06-20T21:57:23.060Z,6.97
2017-06-20T21:59:52.353Z,5.00
2017-06-20T22:02:20.700Z,11.80
2017-06-20T22:04:48.285Z,13.70
2017-06-20T22:07:16.232Z,14.30
2017-06-20T22:09:43.860Z,6.93
2017-06-20T22:12:12.196Z,15.67
2017-06-20T22:14:39.806Z,9.23
2017-06-20T22:17:07.502Z,18.97
2017-06-20T22:19:35.147Z,24.70
2017-06-20T22:22:02.780Z,15.50
2017-06-20T22:24:30.462Z,8.87
2017-06-20T22:26:58.139Z,8.93
2017-06-20T22:29:27.148Z,8.83
2017-06-20T22:31:55.511Z,15.15
2017-06-20T22:34:23.886Z,9.80
2017-06-20T22:36:52.643Z,20.70
2017-06-20T22:39:21.035Z,10.90
2017-06-20T22:41:49.362Z,16.48
2017-06-20T22:44:17.325Z,11.33
2017-06-20T22:46:46.116Z,11.88
2017-06-20T22:49:14.541Z,8.73
2017-06-20T22:51:42.973Z,7.43
2017-06-20T22:54:10.561Z,11.57
2017-06-20T22:56:38.136Z,10.45
2017-06-20T22:59:06.512Z,14.13
2017-06-20T23:01:34.916Z,15.13
2017-06-20T23:04:02.539Z,15.02
2017-06-20T23:06:30.725Z,8.35
2017-06-20T23:08:58.414Z,32.13
2017-06-20T23:11:26.105Z,13.18
2017-06-20T23:13:53.739Z,7.97
2017-06-20T23:16:21.351Z,4.15
2017-06-20T23:18:48.923Z,24.40
2017-06-20T23:21:16.892Z,4.85
2017-06-20T23:23:44.523Z,10.38
2017-06-20T23:26:12.113Z,10.13
2017-06-20T23:28:39.716Z,7.10
2017-06-20T23:31:07.483Z,11.05
2017-06-20T23:33:35.190Z,9.23
2017-06-20T23:36:03.903Z,6.22
2017-06-20T23:38:31.609Z,7.40
2017-06-20T23:40:59.271Z,9.15
2017-06-20T23:43:27.510Z,8.77
2017-06-20T23:45:55.092Z,10.18
2017-06-20T23:48:23.615Z,15.23
2017-06-20T23:50:51.511Z,13.25
2017-06-20T23:53:19.124Z,15.75
2017-06-20T23:55:47.538Z,24.70
2017-06-20T23:58:15.560Z,12.37
